sensor_id;sensor_type;location;lat;lon;timestamp;P1;durP1;ratioP1;P2;durP2;ratioP2
23628;SDS011;11991;57.150;-2.134;2022-07-10T00:00:02;0.40;;;0.40;;
23628;SDS011;11991;57.150;-2.134;2022-07-10T00:02:41;1.02;;;0.40;;
23628;SDS011;11991;57.150;-2.134;2022-07-10T00:05:10;0.50;;;0.50;;
23628;SDS011;11991;57.150;-2.134;2022-07-10T00:07:45;0.50;;;0.50;;
23628;SDS011;11991;57.150;-2.134;2022-07-10T00:10:13;0.60;;;0.60;;
23628;SDS011;11991;57.150;-2.134;2022-07-10T00:12:41;0.47;;;0.47;;
23628;SDS011;11991;57.150;-2.134;2022-07-10T00:15:08;0.50;;;0.43;;
23628;SDS011;11991;57.150;-2.134;2022-07-10T00:17:36;0.60;;;0.52;;
23628;SDS011;11991;57.150;-2.134;2022-07-10T00:20:06;0.50;;;0.50;;
23628;SDS011;11991;57.150;-2.134;2022-07-10T00:22:34;0.40;;;0.40;;
23628;SDS011;11991;57.150;-2.134;2022-07-10T00:25:02;0.47;;;0.43;;
23628;SDS011;11991;57.150;-2.134;2022-07-10T00:27:31;0.95;;;0.50;;
23628;SDS011;11991;57.150;-2.134;2022-07-10T00:29:58;1.33;;;0.60;;
23628;SDS011;11991;57.150;-2.134;2022-07-10T00:32:25;0.60;;;0.50;;
23628;SDS011;11991;57.150;-2.134;2022-07-10T00:34:53;1.13;;;0.57;;
23628;SDS011;11991;57.150;-2.134;2022-07-10T00:37:20;0.40;;;0.40;;
23628;SDS011;11991;57.150;-2.134;2022-07-10T00:39:48;0.40;;;0.40;;
23628;SDS011;11991;57.150;-2.134;2022-07-10T00:42:15;0.40;;;0.40;;
23628;SDS011;11991;57.150;-2.134;2022-07-10T00:44:43;0.50;;;0.50;;
23628;SDS011;11991;57.150;-2.134;2022-07-10T00:47:11;0.30;;;0.30;;
23628;SDS011;11991;57.150;-2.134;2022-07-10T00:49:40;0.60;;;0.60;;
23628;SDS011;11991;57.150;-2.134;2022-07-10T00:52:08;0.30;;;0.30;;
23628;SDS011;11991;57.150;-2.134;2022-07-10T00:54:40;0.40;;;0.40;;
23628;SDS011;11991;57.150;-2.134;2022-07-10T00:57:12;0.40;;;0.40;;
23628;SDS011;11991;57.150;-2.134;2022-07-10T00:59:44;0.30;;;0.30;;
23628;SDS011;11991;57.150;-2.134;2022-07-10T01:02:12;0.40;;;0.40;;
23628;SDS011;11991;57.150;-2.134;2022-07-10T01:04:41;0.45;;;0.30;;
23628;SDS011;11991;57.150;-2.134;2022-07-10T01:07:08;0.40;;;0.40;;
23628;SDS011;11991;57.150;-2.134;2022-07-10T01:09:36;0.40;;;0.40;;
23628;SDS011;11991;57.150;-2.134;2022-07-10T01:12:04;0.32;;;0.32;;
23628;SDS011;11991;57.150;-2.134;2022-07-10T01:14:31;0.50;;;0.50;;
23628;SDS011;11991;57.150;-2.134;2022-07-10T01:16:59;0.40;;;0.40;;
23628;SDS011;11991;57.150;-2.134;2022-07-10T01:19:26;0.40;;;0.40;;
23628;SDS011;11991;57.150;-2.134;2022-07-10T01:21:54;0.47;;;0.43;;
23628;SDS011;11991;57.150;-2.134;2022-07-10T01:24:21;0.40;;;0.40;;
23628;SDS011;11991;57.150;-2.134;2022-07-10T01:26:48;0.60;;;0.50;;
23628;SDS011;11991;57.150;-2.134;2022-07-10T01:29:24;0.35;;;0.35;;
23628;SDS011;11991;57.150;-2.134;2022-07-10T01:31:53;0.50;;;0.50;;
23628;SDS011;11991;57.150;-2.134;2022-07-10T01:34:23;0.30;;;0.30;;
23628;SDS011;11991;57.150;-2.134;2022-07-10T01:36:50;0.93;;;0.40;;
23628;SDS011;11991;57.150;-2.134;2022-07-10T01:39:17;1.77;;;0.30;;
23628;SDS011;11991;57.150;-2.134;2022-07-10T01:41:45;0.50;;;0.50;;
23628;SDS011;11991;57.150;-2.134;2022-07-10T01:44:12;0.30;;;0.30;;
23628;SDS011;11991;57.150;-2.134;2022-07-10T01:46:43;0.93;;;0.52;;
23628;SDS011;11991;57.150;-2.134;2022-07-10T01:49:12;0.30;;;0.30;;
23628;SDS011;11991;57.150;-2.134;2022-07-10T01:51:39;0.40;;;0.40;;
23628;SDS011;11991;57.150;-2.134;2022-07-10T01:54:07;0.40;;;0.40;;
23628;SDS011;11991;57.150;-2.134;2022-07-10T01:56:34;0.50;;;0.50;;
23628;SDS011;11991;57.150;-2.134;2022-07-10T01:59:02;0.57;;;0.50;;
23628;SDS011;11991;57.150;-2.134;2022-07-10T02:01:30;0.60;;;0.60;;
23628;SDS011;11991;57.150;-2.134;2022-07-10T02:03:57;0.30;;;0.30;;
23628;SDS011;11991;57.150;-2.134;2022-07-10T02:06:43;0.30;;;0.30;;
23628;SDS011;11991;57.150;-2.134;2022-07-10T02:09:11;0.40;;;0.40;;
23628;SDS011;11991;57.150;-2.134;2022-07-10T02:11:38;0.50;;;0.50;;
23628;SDS011;11991;57.150;-2.134;2022-07-10T02:14:05;0.50;;;0.50;;
23628;SDS011;11991;57.150;-2.134;2022-07-10T02:16:34;0.38;;;0.38;;
23628;SDS011;11991;57.150;-2.134;2022-07-10T02:19:05;0.30;;;0.30;;
23628;SDS011;11991;57.150;-2.134;2022-07-10T02:21:32;0.40;;;0.40;;
23628;SDS011;11991;57.150;-2.134;2022-07-10T02:23:59;0.40;;;0.40;;
23628;SDS011;11991;57.150;-2.134;2022-07-10T02:26:26;0.30;;;0.30;;
23628;SDS011;11991;57.150;-2.134;2022-07-10T02:28:53;0.40;;;0.40;;
23628;SDS011;11991;57.150;-2.134;2022-07-10T02:31:21;0.30;;;0.30;;
23628;SDS011;11991;57.150;-2.134;2022-07-10T02:33:48;0.30;;;0.30;;
23628;SDS011;11991;57.150;-2.134;2022-07-10T02:36:15;0.30;;;0.30;;
23628;SDS011;11991;57.150;-2.134;2022-07-10T02:38:42;0.30;;;0.30;;
23628;SDS011;11991;57.150;-2.134;2022-07-10T02:41:10;0.30;;;0.30;;
23628;SDS011;11991;57.150;-2.134;2022-07-10T02:43:37;0.30;;;0.30;;
23628;SDS011;11991;57.150;-2.134;2022-07-10T02:46:04;0.30;;;0.30;;
23628;SDS011;11991;57.150;-2.134;2022-07-10T02:48:31;0.30;;;0.30;;
23628;SDS011;11991;57.150;-2.134;2022-07-10T02:50:59;0.30;;;0.30;;
23628;SDS011;11991;57.150;-2.134;2022-07-10T02:53:26;0.40;;;0.40;;
23628;SDS011;11991;57.150;-2.134;2022-07-10T02:55:53;0.40;;;0.40;;
23628;SDS011;11991;57.150;-2.134;2022-07-10T02:58:21;0.25;;;0.25;;
23628;SDS011;11991;57.150;-2.134;2022-07-10T03:00:48;0.30;;;0.30;;
23628;SDS011;11991;57.150;-2.134;2022-07-10T03:03:15;0.20;;;0.20;;
23628;SDS011;11991;57.150;-2.134;2022-07-10T03:05:45;0.43;;;0.30;;
23628;SDS011;11991;57.150;-2.134;2022-07-10T03:08:13;0.40;;;0.40;;
23628;SDS011;11991;57.150;-2.134;2022-07-10T03:10:40;0.52;;;0.43;;
23628;SDS011;11991;57.150;-2.134;2022-07-10T03:13:08;0.30;;;0.30;;
23628;SDS011;11991;57.150;-2.134;2022-07-10T03:15:35;0.30;;;0.30;;
23628;SDS011;11991;57.150;-2.134;2022-07-10T03:18:02;0.40;;;0.40;;
23628;SDS011;11991;57.150;-2.134;2022-07-10T03:20:30;0.30;;;0.30;;
23628;SDS011;11991;57.150;-2.134;2022-07-10T03:22:57;0.40;;;0.30;;
23628;SDS011;11991;57.150;-2.134;2022-07-10T03:25:24;0.30;;;0.30;;
23628;SDS011;11991;57.150;-2.134;2022-07-10T03:27:51;0.30;;;0.30;;
23628;SDS011;11991;57.150;-2.134;2022-07-10T03:30:19;0.43;;;0.40;;
23628;SDS011;11991;57.150;-2.134;2022-07-10T03:32:47;0.25;;;0.25;;
23628;SDS011;11991;57.150;-2.134;2022-07-10T03:35:14;0.20;;;0.20;;
23628;SDS011;11991;57.150;-2.134;2022-07-10T03:37:42;0.30;;;0.30;;
23628;SDS011;11991;57.150;-2.134;2022-07-10T03:40:09;0.50;;;0.40;;
23628;SDS011;11991;57.150;-2.134;2022-07-10T03:42:37;0.30;;;0.30;;
23628;SDS011;11991;57.150;-2.134;2022-07-10T03:45:04;0.50;;;0.50;;
23628;SDS011;11991;57.150;-2.134;2022-07-10T03:47:32;0.45;;;0.43;;
23628;SDS011;11991;57.150;-2.134;2022-07-10T03:49:59;0.30;;;0.30;;
23628;SDS011;11991;57.150;-2.134;2022-07-10T03:52:26;0.30;;;0.30;;
23628;SDS011;11991;57.150;-2.134;2022-07-10T03:54:54;0.30;;;0.30;;
23628;SDS011;11991;57.150;-2.134;2022-07-10T03:57:21;0.30;;;0.30;;
23628;SDS011;11991;57.150;-2.134;2022-07-10T04:00:08;0.40;;;0.30;;
23628;SDS011;11991;57.150;-2.134;2022-07-10T04:02:38;0.20;;;0.20;;
23628;SDS011;11991;57.150;-2.134;2022-07-10T04:05:06;0.55;;;0.50;;
23628;SDS011;11991;57.150;-2.134;2022-07-10T04:07:35;0.20;;;0.20;;
23628;SDS011;11991;57.150;-2.134;2022-07-10T04:10:03;0.22;;;0.22;;
23628;SDS011;11991;57.150;-2.134;2022-07-10T04:12:31;0.38;;;0.38;;
23628;SDS011;11991;57.150;-2.134;2022-07-10T04:14:59;0.30;;;0.30;;
23628;SDS011;11991;57.150;-2.134;2022-07-10T04:17:26;0.30;;;0.30;;
23628;SDS011;11991;57.150;-2.134;2022-07-10T04:19:53;0.32;;;0.32;;
23628;SDS011;11991;57.150;-2.134;2022-07-10T04:22:20;0.40;;;0.40;;
23628;SDS011;11991;57.150;-2.134;2022-07-10T04:24:49;0.40;;;0.40;;
23628;SDS011;11991;57.150;-2.134;2022-07-10T04:27:17;0.30;;;0.30;;
23628;SDS011;11991;57.150;-2.134;2022-07-10T04:29:44;0.28;;;0.28;;
23628;SDS011;11991;57.150;-2.134;2022-07-10T04:32:11;0.30;;;0.30;;
23628;SDS011;11991;57.150;-2.134;2022-07-10T04:34:39;0.40;;;0.40;;
23628;SDS011;11991;57.150;-2.134;2022-07-10T04:37:06;0.30;;;0.30;;
23628;SDS011;11991;57.150;-2.134;2022-07-10T04:39:38;0.30;;;0.30;;
23628;SDS011;11991;57.150;-2.134;2022-07-10T04:42:06;0.50;;;0.47;;
23628;SDS011;11991;57.150;-2.134;2022-07-10T04:44:35;0.30;;;0.30;;
23628;SDS011;11991;57.150;-2.134;2022-07-10T04:47:03;0.30;;;0.30;;
23628;SDS011;11991;57.150;-2.134;2022-07-10T04:49:32;0.40;;;0.32;;
23628;SDS011;11991;57.150;-2.134;2022-07-10T04:52:00;0.40;;;0.40;;
23628;SDS011;11991;57.150;-2.134;2022-07-10T04:54:27;0.40;;;0.40;;
23628;SDS011;11991;57.150;-2.134;2022-07-10T04:56:55;0.30;;;0.30;;
23628;SDS011;11991;57.150;-2.134;2022-07-10T04:59:22;0.50;;;0.40;;
23628;SDS011;11991;57.150;-2.134;2022-07-10T05:01:49;0.38;;;0.38;;
23628;SDS011;11991;57.150;-2.134;2022-07-10T05:04:17;1.05;;;0.30;;
23628;SDS011;11991;57.150;-2.134;2022-07-10T05:06:44;0.30;;;0.30;;
23628;SDS011;11991;57.150;-2.134;2022-07-10T05:09:11;0.50;;;0.50;;
23628;SDS011;11991;57.150;-2.134;2022-07-10T05:11:39;0.52;;;0.52;;
23628;SDS011;11991;57.150;-2.134;2022-07-10T05:14:06;0.75;;;0.47;;
23628;SDS011;11991;57.150;-2.134;2022-07-10T05:16:33;0.35;;;0.35;;
23628;SDS011;11991;57.150;-2.134;2022-07-10T05:19:00;0.30;;;0.30;;
23628;SDS011;11991;57.150;-2.134;2022-07-10T05:21:28;0.38;;;0.38;;
23628;SDS011;11991;57.150;-2.134;2022-07-10T05:23:55;0.30;;;0.30;;
23628;SDS011;11991;57.150;-2.134;2022-07-10T05:26:22;0.30;;;0.30;;
23628;SDS011;11991;57.150;-2.134;2022-07-10T05:28:49;0.40;;;0.30;;
23628;SDS011;11991;57.150;-2.134;2022-07-10T05:31:16;1.08;;;0.30;;
23628;SDS011;11991;57.150;-2.134;2022-07-10T05:33:44;0.30;;;0.30;;
23628;SDS011;11991;57.150;-2.134;2022-07-10T05:36:11;0.30;;;0.30;;
23628;SDS011;11991;57.150;-2.134;2022-07-10T05:38:39;0.40;;;0.40;;
23628;SDS011;11991;57.150;-2.134;2022-07-10T05:41:07;0.70;;;0.50;;
23628;SDS011;11991;57.150;-2.134;2022-07-10T05:43:34;0.50;;;0.45;;
23628;SDS011;11991;57.150;-2.134;2022-07-10T05:46:01;0.30;;;0.30;;
23628;SDS011;11991;57.150;-2.134;2022-07-10T05:48:29;0.32;;;0.30;;
23628;SDS011;11991;57.150;-2.134;2022-07-10T05:50:56;0.30;;;0.30;;
23628;SDS011;11991;57.150;-2.134;2022-07-10T05:53:43;0.40;;;0.40;;
23628;SDS011;11991;57.150;-2.134;2022-07-10T05:56:11;0.40;;;0.40;;
23628;SDS011;11991;57.150;-2.134;2022-07-10T05:58:38;0.38;;;0.30;;
23628;SDS011;11991;57.150;-2.134;2022-07-10T06:01:06;0.30;;;0.30;;
23628;SDS011;11991;57.150;-2.134;2022-07-10T06:03:33;0.30;;;0.30;;
23628;SDS011;11991;57.150;-2.134;2022-07-10T06:06:02;0.30;;;0.30;;
23628;SDS011;11991;57.150;-2.134;2022-07-10T06:08:29;0.40;;;0.30;;
23628;SDS011;11991;57.150;-2.134;2022-07-10T06:10:56;0.30;;;0.30;;
23628;SDS011;11991;57.150;-2.134;2022-07-10T06:13:23;0.30;;;0.30;;
23628;SDS011;11991;57.150;-2.134;2022-07-10T06:15:51;0.30;;;0.30;;
23628;SDS011;11991;57.150;-2.134;2022-07-10T06:18:18;0.30;;;0.30;;
23628;SDS011;11991;57.150;-2.134;2022-07-10T06:20:45;0.30;;;0.30;;
23628;SDS011;11991;57.150;-2.134;2022-07-10T06:23:13;0.30;;;0.30;;
23628;SDS011;11991;57.150;-2.134;2022-07-10T06:25:40;0.40;;;0.40;;
23628;SDS011;11991;57.150;-2.134;2022-07-10T06:28:07;2.30;;;0.40;;
23628;SDS011;11991;57.150;-2.134;2022-07-10T06:30:34;0.30;;;0.30;;
23628;SDS011;11991;57.150;-2.134;2022-07-10T06:33:01;0.40;;;0.40;;
23628;SDS011;11991;57.150;-2.134;2022-07-10T06:35:29;0.30;;;0.30;;
23628;SDS011;11991;57.150;-2.134;2022-07-10T06:37:56;0.40;;;0.40;;
23628;SDS011;11991;57.150;-2.134;2022-07-10T06:40:23;0.30;;;0.30;;
23628;SDS011;11991;57.150;-2.134;2022-07-10T06:42:51;0.32;;;0.32;;
23628;SDS011;11991;57.150;-2.134;2022-07-10T06:45:19;0.30;;;0.30;;
23628;SDS011;11991;57.150;-2.134;2022-07-10T06:47:46;0.20;;;0.20;;
23628;SDS011;11991;57.150;-2.134;2022-07-10T06:50:24;0.30;;;0.30;;
23628;SDS011;11991;57.150;-2.134;2022-07-10T06:52:53;0.20;;;0.20;;
23628;SDS011;11991;57.150;-2.134;2022-07-10T06:55:21;0.30;;;0.30;;
23628;SDS011;11991;57.150;-2.134;2022-07-10T06:57:49;0.30;;;0.30;;
23628;SDS011;11991;57.150;-2.134;2022-07-10T07:00:16;0.30;;;0.30;;
23628;SDS011;11991;57.150;-2.134;2022-07-10T07:02:43;0.30;;;0.30;;
23628;SDS011;11991;57.150;-2.134;2022-07-10T07:05:11;0.30;;;0.30;;
23628;SDS011;11991;57.150;-2.134;2022-07-10T07:07:39;0.28;;;0.28;;
23628;SDS011;11991;57.150;-2.134;2022-07-10T07:10:06;0.30;;;0.30;;
23628;SDS011;11991;57.150;-2.134;2022-07-10T07:12:34;0.30;;;0.30;;
23628;SDS011;11991;57.150;-2.134;2022-07-10T07:15:02;0.40;;;0.35;;
23628;SDS011;11991;57.150;-2.134;2022-07-10T07:17:30;0.30;;;0.30;;
23628;SDS011;11991;57.150;-2.134;2022-07-10T07:20:00;0.30;;;0.30;;
23628;SDS011;11991;57.150;-2.134;2022-07-10T07:22:47;0.30;;;0.30;;
23628;SDS011;11991;57.150;-2.134;2022-07-10T07:25:33;0.73;;;0.40;;
23628;SDS011;11991;57.150;-2.134;2022-07-10T07:28:00;0.40;;;0.30;;
23628;SDS011;11991;57.150;-2.134;2022-07-10T07:30:27;0.30;;;0.30;;
23628;SDS011;11991;57.150;-2.134;2022-07-10T07:32:55;0.30;;;0.30;;
23628;SDS011;11991;57.150;-2.134;2022-07-10T07:35:22;0.30;;;0.30;;
23628;SDS011;11991;57.150;-2.134;2022-07-10T07:37:49;0.30;;;0.30;;
23628;SDS011;11991;57.150;-2.134;2022-07-10T07:40:23;0.45;;;0.45;;
23628;SDS011;11991;57.150;-2.134;2022-07-10T07:42:51;2.95;;;1.17;;
23628;SDS011;11991;57.150;-2.134;2022-07-10T07:45:20;2.63;;;1.85;;
23628;SDS011;11991;57.150;-2.134;2022-07-10T07:50:22;5.28;;;2.85;;
23628;SDS011;11991;57.150;-2.134;2022-07-10T07:52:55;4.00;;;2.22;;
23628;SDS011;11991;57.150;-2.134;2022-07-10T07:55:22;5.97;;;2.85;;
23628;SDS011;11991;57.150;-2.134;2022-07-10T07:57:53;7.43;;;3.05;;
23628;SDS011;11991;57.150;-2.134;2022-07-10T08:00:22;8.48;;;4.35;;
23628;SDS011;11991;57.150;-2.134;2022-07-10T08:02:51;9.88;;;5.18;;
23628;SDS011;11991;57.150;-2.134;2022-07-10T08:05:20;7.85;;;3.70;;
23628;SDS011;11991;57.150;-2.134;2022-07-10T08:07:51;5.55;;;3.50;;
23628;SDS011;11991;57.150;-2.134;2022-07-10T08:10:21;5.93;;;3.15;;
23628;SDS011;11991;57.150;-2.134;2022-07-10T08:12:49;5.43;;;2.67;;
23628;SDS011;11991;57.150;-2.134;2022-07-10T08:15:18;5.70;;;2.50;;
23628;SDS011;11991;57.150;-2.134;2022-07-10T08:17:52;3.45;;;1.80;;
23628;SDS011;11991;57.150;-2.134;2022-07-10T08:20:22;2.40;;;1.60;;
23628;SDS011;11991;57.150;-2.134;2022-07-10T08:22:51;2.17;;;1.40;;
23628;SDS011;11991;57.150;-2.134;2022-07-10T08:25:26;2.38;;;1.40;;
23628;SDS011;11991;57.150;-2.134;2022-07-10T08:28:03;2.65;;;1.40;;
23628;SDS011;11991;57.150;-2.134;2022-07-10T08:30:32;2.10;;;1.35;;
23628;SDS011;11991;57.150;-2.134;2022-07-10T08:33:00;2.47;;;1.40;;
23628;SDS011;11991;57.150;-2.134;2022-07-10T08:35:27;2.92;;;1.83;;
23628;SDS011;11991;57.150;-2.134;2022-07-10T08:37:54;3.30;;;1.40;;
23628;SDS011;11991;57.150;-2.134;2022-07-10T08:40:22;2.50;;;1.20;;
23628;SDS011;11991;57.150;-2.134;2022-07-10T08:42:49;2.92;;;1.45;;
23628;SDS011;11991;57.150;-2.134;2022-07-10T08:45:17;2.45;;;1.42;;
23628;SDS011;11991;57.150;-2.134;2022-07-10T08:47:45;1.50;;;1.10;;
23628;SDS011;11991;57.150;-2.134;2022-07-10T08:52:47;1.27;;;1.00;;
23628;SDS011;11991;57.150;-2.134;2022-07-10T08:55:36;0.80;;;0.70;;
23628;SDS011;11991;57.150;-2.134;2022-07-10T08:58:03;2.33;;;1.25;;
23628;SDS011;11991;57.150;-2.134;2022-07-10T09:00:31;3.38;;;1.92;;
23628;SDS011;11991;57.150;-2.134;2022-07-10T09:02:58;2.45;;;1.40;;
23628;SDS011;11991;57.150;-2.134;2022-07-10T09:05:26;2.45;;;1.52;;
23628;SDS011;11991;57.150;-2.134;2022-07-10T09:07:54;5.05;;;2.55;;
23628;SDS011;11991;57.150;-2.134;2022-07-10T09:10:25;3.05;;;1.92;;
23628;SDS011;11991;57.150;-2.134;2022-07-10T09:12:54;3.30;;;1.70;;
23628;SDS011;11991;57.150;-2.134;2022-07-10T09:15:28;3.25;;;1.55;;
23628;SDS011;11991;57.150;-2.134;2022-07-10T09:18:00;2.25;;;1.48;;
23628;SDS011;11991;57.150;-2.134;2022-07-10T09:20:35;4.05;;;2.05;;
23628;SDS011;11991;57.150;-2.134;2022-07-10T09:23:16;5.90;;;2.95;;
23628;SDS011;11991;57.150;-2.134;2022-07-10T09:25:44;7.82;;;3.78;;
23628;SDS011;11991;57.150;-2.134;2022-07-10T09:28:16;7.95;;;4.90;;
23628;SDS011;11991;57.150;-2.134;2022-07-10T09:30:45;13.95;;;6.97;;
23628;SDS011;11991;57.150;-2.134;2022-07-10T09:33:23;9.82;;;4.60;;
23628;SDS011;11991;57.150;-2.134;2022-07-10T09:43:50;13.88;;;6.03;;
23628;SDS011;11991;57.150;-2.134;2022-07-10T09:46:19;7.65;;;4.95;;
23628;SDS011;11991;57.150;-2.134;2022-07-10T09:48:48;6.80;;;3.20;;
23628;SDS011;11991;57.150;-2.134;2022-07-10T09:51:41;4.00;;;2.80;;
23628;SDS011;11991;57.150;-2.134;2022-07-10T09:54:40;3.75;;;2.35;;
23628;SDS011;11991;57.150;-2.134;2022-07-10T09:57:08;5.90;;;2.65;;
23628;SDS011;11991;57.150;-2.134;2022-07-10T09:59:38;9.43;;;4.57;;
23628;SDS011;11991;57.150;-2.134;2022-07-10T10:02:07;7.57;;;5.13;;
23628;SDS011;11991;57.150;-2.134;2022-07-10T10:04:36;9.73;;;4.70;;
23628;SDS011;11991;57.150;-2.134;2022-07-10T10:07:06;12.32;;;5.72;;
23628;SDS011;11991;57.150;-2.134;2022-07-10T10:09:40;8.55;;;4.15;;
23628;SDS011;11991;57.150;-2.134;2022-07-10T10:12:12;4.78;;;2.70;;
23628;SDS011;11991;57.150;-2.134;2022-07-10T10:14:48;2.90;;;1.65;;
23628;SDS011;11991;57.150;-2.134;2022-07-10T10:17:18;2.63;;;1.33;;
23628;SDS011;11991;57.150;-2.134;2022-07-10T10:19:48;1.95;;;1.30;;
23628;SDS011;11991;57.150;-2.134;2022-07-10T10:22:36;2.03;;;1.42;;
23628;SDS011;11991;57.150;-2.134;2022-07-10T10:25:07;1.92;;;0.85;;
23628;SDS011;11991;57.150;-2.134;2022-07-10T10:27:36;1.08;;;0.90;;
23628;SDS011;11991;57.150;-2.134;2022-07-10T10:30:04;1.00;;;0.90;;
23628;SDS011;11991;57.150;-2.134;2022-07-10T10:32:32;1.88;;;1.00;;
23628;SDS011;11991;57.150;-2.134;2022-07-10T10:34:59;2.95;;;1.80;;
23628;SDS011;11991;57.150;-2.134;2022-07-10T10:39:54;3.33;;;2.10;;
23628;SDS011;11991;57.150;-2.134;2022-07-10T10:47:59;1.27;;;0.88;;
23628;SDS011;11991;57.150;-2.134;2022-07-10T10:50:56;0.70;;;0.60;;
23628;SDS011;11991;57.150;-2.134;2022-07-10T10:58:41;0.65;;;0.40;;
23628;SDS011;11991;57.150;-2.134;2022-07-10T11:06:46;2.63;;;1.48;;
23628;SDS011;11991;57.150;-2.134;2022-07-10T11:09:33;2.15;;;1.20;;
23628;SDS011;11991;57.150;-2.134;2022-07-10T11:12:07;1.73;;;0.90;;
23628;SDS011;11991;57.150;-2.134;2022-07-10T11:14:36;1.15;;;0.70;;
23628;SDS011;11991;57.150;-2.134;2022-07-10T11:17:14;1.52;;;0.75;;
23628;SDS011;11991;57.150;-2.134;2022-07-10T11:19:42;1.35;;;0.73;;
23628;SDS011;11991;57.150;-2.134;2022-07-10T11:28:06;0.50;;;0.40;;
23628;SDS011;11991;57.150;-2.134;2022-07-10T11:30:45;0.50;;;0.50;;
23628;SDS011;11991;57.150;-2.134;2022-07-10T11:33:20;0.70;;;0.50;;
23628;SDS011;11991;57.150;-2.134;2022-07-10T11:35:51;1.27;;;1.10;;
23628;SDS011;11991;57.150;-2.134;2022-07-10T11:38:23;0.45;;;0.45;;
23628;SDS011;11991;57.150;-2.134;2022-07-10T11:40:52;0.60;;;0.50;;
23628;SDS011;11991;57.150;-2.134;2022-07-10T11:43:21;0.40;;;0.40;;
23628;SDS011;11991;57.150;-2.134;2022-07-10T11:45:51;0.55;;;0.55;;
23628;SDS011;11991;57.150;-2.134;2022-07-10T11:48:21;0.82;;;0.60;;
23628;SDS011;11991;57.150;-2.134;2022-07-10T11:50:48;1.08;;;0.80;;
23628;SDS011;11991;57.150;-2.134;2022-07-10T11:53:23;0.68;;;0.68;;
23628;SDS011;11991;57.150;-2.134;2022-07-10T11:55:51;0.60;;;0.60;;
23628;SDS011;11991;57.150;-2.134;2022-07-10T11:58:19;0.68;;;0.50;;
23628;SDS011;11991;57.150;-2.134;2022-07-10T12:00:57;1.15;;;1.05;;
23628;SDS011;11991;57.150;-2.134;2022-07-10T12:03:26;0.60;;;0.60;;
23628;SDS011;11991;57.150;-2.134;2022-07-10T12:05:55;0.65;;;0.60;;
23628;SDS011;11991;57.150;-2.134;2022-07-10T12:08:29;0.47;;;0.47;;
23628;SDS011;11991;57.150;-2.134;2022-07-10T12:10:56;1.98;;;0.98;;
23628;SDS011;11991;57.150;-2.134;2022-07-10T12:13:24;0.80;;;0.80;;
23628;SDS011;11991;57.150;-2.134;2022-07-10T12:15:51;0.88;;;0.85;;
23628;SDS011;11991;57.150;-2.134;2022-07-10T12:18:19;1.25;;;0.63;;
23628;SDS011;11991;57.150;-2.134;2022-07-10T12:20:48;0.70;;;0.70;;
23628;SDS011;11991;57.150;-2.134;2022-07-10T12:23:19;1.20;;;1.10;;
23628;SDS011;11991;57.150;-2.134;2022-07-10T12:25:47;0.80;;;0.80;;
23628;SDS011;11991;57.150;-2.134;2022-07-10T12:28:17;1.42;;;0.77;;
23628;SDS011;11991;57.150;-2.134;2022-07-10T12:30:46;1.02;;;0.73;;
23628;SDS011;11991;57.150;-2.134;2022-07-10T12:33:19;1.60;;;0.93;;
23628;SDS011;11991;57.150;-2.134;2022-07-10T12:38:19;0.73;;;0.73;;
23628;SDS011;11991;57.150;-2.134;2022-07-10T12:40:47;0.80;;;0.80;;
23628;SDS011;11991;57.150;-2.134;2022-07-10T12:43:27;1.15;;;0.90;;
23628;SDS011;11991;57.150;-2.134;2022-07-10T12:49:02;1.52;;;0.90;;
23628;SDS011;11991;57.150;-2.134;2022-07-10T12:54:36;2.03;;;1.05;;
23628;SDS011;11991;57.150;-2.134;2022-07-10T12:57:04;0.80;;;0.80;;
23628;SDS011;11991;57.150;-2.134;2022-07-10T12:59:36;1.50;;;1.10;;
23628;SDS011;11991;57.150;-2.134;2022-07-10T13:02:18;3.42;;;1.33;;
23628;SDS011;11991;57.150;-2.134;2022-07-10T13:04:53;1.23;;;0.93;;
23628;SDS011;11991;57.150;-2.134;2022-07-10T13:09:59;1.38;;;0.80;;
23628;SDS011;11991;57.150;-2.134;2022-07-10T13:12:30;0.80;;;0.80;;
23628;SDS011;11991;57.150;-2.134;2022-07-10T13:14:59;0.93;;;0.70;;
23628;SDS011;11991;57.150;-2.134;2022-07-10T13:17:27;1.73;;;0.82;;
23628;SDS011;11991;57.150;-2.134;2022-07-10T13:19:54;1.38;;;0.80;;
23628;SDS011;11991;57.150;-2.134;2022-07-10T13:22:23;1.67;;;1.05;;
23628;SDS011;11991;57.150;-2.134;2022-07-10T13:24:50;0.68;;;0.63;;
23628;SDS011;11991;57.150;-2.134;2022-07-10T13:27:17;1.27;;;0.70;;
23628;SDS011;11991;57.150;-2.134;2022-07-10T13:29:46;0.77;;;0.60;;
23628;SDS011;11991;57.150;-2.134;2022-07-10T13:32:14;1.52;;;0.88;;
23628;SDS011;11991;57.150;-2.134;2022-07-10T13:34:41;1.42;;;0.77;;
23628;SDS011;11991;57.150;-2.134;2022-07-10T13:37:09;3.08;;;1.27;;
23628;SDS011;11991;57.150;-2.134;2022-07-10T13:39:40;0.80;;;0.80;;
23628;SDS011;11991;57.150;-2.134;2022-07-10T13:42:07;2.30;;;0.88;;
23628;SDS011;11991;57.150;-2.134;2022-07-10T13:44:34;1.10;;;0.80;;
23628;SDS011;11991;57.150;-2.134;2022-07-10T13:47:02;1.33;;;0.80;;
23628;SDS011;11991;57.150;-2.134;2022-07-10T13:49:29;1.95;;;0.68;;
23628;SDS011;11991;57.150;-2.134;2022-07-10T13:51:57;1.73;;;1.05;;
23628;SDS011;11991;57.150;-2.134;2022-07-10T13:54:24;1.77;;;1.10;;
23628;SDS011;11991;57.150;-2.134;2022-07-10T13:56:52;2.17;;;1.20;;
23628;SDS011;11991;57.150;-2.134;2022-07-10T13:59:19;1.40;;;0.90;;
23628;SDS011;11991;57.150;-2.134;2022-07-10T14:01:46;1.83;;;1.00;;
23628;SDS011;11991;57.150;-2.134;2022-07-10T14:04:17;1.67;;;0.73;;
23628;SDS011;11991;57.150;-2.134;2022-07-10T14:06:44;1.05;;;0.70;;
23628;SDS011;11991;57.150;-2.134;2022-07-10T14:09:11;1.83;;;1.00;;
23628;SDS011;11991;57.150;-2.134;2022-07-10T14:11:39;1.83;;;0.73;;
23628;SDS011;11991;57.150;-2.134;2022-07-10T14:14:07;1.10;;;0.88;;
23628;SDS011;11991;57.150;-2.134;2022-07-10T14:16:34;1.02;;;0.80;;
23628;SDS011;11991;57.150;-2.134;2022-07-10T14:19:02;0.82;;;0.60;;
23628;SDS011;11991;57.150;-2.134;2022-07-10T14:21:37;1.63;;;1.05;;
23628;SDS011;11991;57.150;-2.134;2022-07-10T14:24:06;1.55;;;1.00;;
23628;SDS011;11991;57.150;-2.134;2022-07-10T14:26:33;2.20;;;1.00;;
23628;SDS011;11991;57.150;-2.134;2022-07-10T14:29:05;1.10;;;0.80;;
23628;SDS011;11991;57.150;-2.134;2022-07-10T14:31:32;1.00;;;0.90;;
23628;SDS011;11991;57.150;-2.134;2022-07-10T14:34:00;0.95;;;0.70;;
23628;SDS011;11991;57.150;-2.134;2022-07-10T14:36:27;2.65;;;1.35;;
23628;SDS011;11991;57.150;-2.134;2022-07-10T14:38:55;1.95;;;0.95;;
23628;SDS011;11991;57.150;-2.134;2022-07-10T14:41:23;0.75;;;0.75;;
23628;SDS011;11991;57.150;-2.134;2022-07-10T14:43:51;1.05;;;0.90;;
23628;SDS011;11991;57.150;-2.134;2022-07-10T14:46:19;1.48;;;1.05;;
23628;SDS011;11991;57.150;-2.134;2022-07-10T14:48:46;1.33;;;1.02;;
23628;SDS011;11991;57.150;-2.134;2022-07-10T14:51:14;1.45;;;0.77;;
23628;SDS011;11991;57.150;-2.134;2022-07-10T14:53:41;1.15;;;0.80;;
23628;SDS011;11991;57.150;-2.134;2022-07-10T14:56:10;0.82;;;0.68;;
23628;SDS011;11991;57.150;-2.134;2022-07-10T14:58:38;1.40;;;0.80;;
23628;SDS011;11991;57.150;-2.134;2022-07-10T15:01:25;2.03;;;0.98;;
23628;SDS011;11991;57.150;-2.134;2022-07-10T15:03:54;2.17;;;0.85;;
23628;SDS011;11991;57.150;-2.134;2022-07-10T15:06:22;1.48;;;1.05;;
23628;SDS011;11991;57.150;-2.134;2022-07-10T15:08:50;1.20;;;0.80;;
23628;SDS011;11991;57.150;-2.134;2022-07-10T15:11:18;2.08;;;1.40;;
23628;SDS011;11991;57.150;-2.134;2022-07-10T15:13:49;1.50;;;1.05;;
23628;SDS011;11991;57.150;-2.134;2022-07-10T15:16:25;1.05;;;0.95;;
23628;SDS011;11991;57.150;-2.134;2022-07-10T15:18:54;1.05;;;0.80;;
23628;SDS011;11991;57.150;-2.134;2022-07-10T15:21:22;0.60;;;0.57;;
23628;SDS011;11991;57.150;-2.134;2022-07-10T15:23:49;1.42;;;0.80;;
23628;SDS011;11991;57.150;-2.134;2022-07-10T15:26:17;1.15;;;0.73;;
23628;SDS011;11991;57.150;-2.134;2022-07-10T15:28:44;0.98;;;0.70;;
23628;SDS011;11991;57.150;-2.134;2022-07-10T15:31:11;1.05;;;0.95;;
23628;SDS011;11991;57.150;-2.134;2022-07-10T15:33:39;1.05;;;0.82;;